createdAt,value
2022-12-10T00:03:58.140Z,26.02
2022-12-10T00:07:59.621Z,25.73
2022-12-10T00:12:01.067Z,22.92
2022-12-10T00:16:04.136Z,23.23
2022-12-10T00:20:06.493Z,28.73
2022-12-10T00:24:08.418Z,27.48
2022-12-10T00:28:09.905Z,27.55
2022-12-10T00:32:11.373Z,28.92
2022-12-10T00:36:18.963Z,25.15
2022-12-10T00:40:20.450Z,25.80
2022-12-10T00:44:22.093Z,20.45
2022-12-10T00:48:23.896Z,20.30
2022-12-10T00:52:25.518Z,19.52
2022-12-10T00:56:33.317Z,24.80
2022-12-10T01:00:34.773Z,26.67
2022-12-10T01:04:36.294Z,22.63
2022-12-10T01:08:38.327Z,23.67
2022-12-10T01:12:39.757Z,23.20
2022-12-10T01:16:41.357Z,26.52
2022-12-10T01:20:42.830Z,22.52
2022-12-10T01:24:44.354Z,23.70
2022-12-10T01:28:46.441Z,23.58
2022-12-10T01:32:47.869Z,24.50
2022-12-10T01:36:52.422Z,21.10
2022-12-10T01:40:53.882Z,24.67
2022-12-10T01:45:00.000Z,28.10
2022-12-10T01:49:04.928Z,28.95
2022-12-10T01:53:07.142Z,23.35
2022-12-10T01:57:10.576Z,25.20
2022-12-10T02:01:12.035Z,30.58
2022-12-10T02:05:26.318Z,21.90
2022-12-10T02:09:45.059Z,25.95
2022-12-10T02:13:56.788Z,26.17
2022-12-10T02:18:05.524Z,27.75
2022-12-10T02:22:08.804Z,27.42
2022-12-10T02:26:17.654Z,28.00
2022-12-10T02:30:19.919Z,24.33
2022-12-10T02:34:24.048Z,26.58
2022-12-10T02:38:32.942Z,20.30
2022-12-10T02:42:38.958Z,25.23
2022-12-10T02:46:42.960Z,31.42
2022-12-10T02:50:44.460Z,25.75
2022-12-10T02:54:48.254Z,21.08
2022-12-10T02:59:07.478Z,25.98
2022-12-10T03:03:24.149Z,23.83
2022-12-10T03:07:50.498Z,23.33
2022-12-10T03:12:03.122Z,23.88
2022-12-10T03:16:05.850Z,20.02
2022-12-10T03:20:13.748Z,22.38
2022-12-10T03:24:17.360Z,24.80
2022-12-10T03:28:21.022Z,21.25
2022-12-10T03:32:25.984Z,25.70
2022-12-10T03:36:29.706Z,25.52
2022-12-10T03:40:32.582Z,24.27
2022-12-10T03:44:36.683Z,25.08
2022-12-10T03:48:38.105Z,29.67
2022-12-10T03:52:39.593Z,23.75
2022-12-10T03:56:41.154Z,27.85
2022-12-10T04:00:42.619Z,26.63
2022-12-10T04:04:44.211Z,24.92
2022-12-10T04:08:46.862Z,24.05
2022-12-10T04:13:08.269Z,26.08
2022-12-10T04:17:09.951Z,20.77
2022-12-10T04:21:30.093Z,26.33
2022-12-10T04:25:49.858Z,24.25
2022-12-10T04:29:51.603Z,24.95
2022-12-10T04:33:53.041Z,31.02
2022-12-10T04:37:54.441Z,24.95
2022-12-10T04:41:55.896Z,24.58
2022-12-10T04:45:57.532Z,24.88
2022-12-10T04:49:59.036Z,28.27
2022-12-10T04:54:01.030Z,21.15
2022-12-10T04:58:02.972Z,27.92
2022-12-10T05:02:05.973Z,21.92
2022-12-10T05:06:13.234Z,26.13
2022-12-10T05:10:14.794Z,24.95
2022-12-10T05:14:16.600Z,29.42
2022-12-10T05:18:18.030Z,31.20
2022-12-10T05:22:37.984Z,23.02
2022-12-10T05:26:39.501Z,25.17
2022-12-10T05:30:40.987Z,29.63
2022-12-10T05:34:42.427Z,24.30
2022-12-10T05:38:44.490Z,24.10
2022-12-10T05:42:47.013Z,23.63
2022-12-10T05:46:48.475Z,23.42
2022-12-10T05:50:49.925Z,26.98
2022-12-10T05:54:51.357Z,27.20
2022-12-10T05:58:57.696Z,29.05
2022-12-10T06:02:59.171Z,28.00
2022-12-10T06:07:00.615Z,26.92
2022-12-10T06:11:06.947Z,25.17
2022-12-10T06:15:08.868Z,22.95
2022-12-10T06:19:10.361Z,24.20
2022-12-10T06:23:11.753Z,27.60
2022-12-10T06:27:13.222Z,20.83
2022-12-10T06:31:16.279Z,23.98
2022-12-10T06:35:18.117Z,23.95
2022-12-10T06:39:19.534Z,23.30
2022-12-10T06:43:21.017Z,21.13
2022-12-10T06:47:22.558Z,20.70
2022-12-10T06:51:24.026Z,20.70
2022-12-10T06:55:25.464Z,21.20
2022-12-10T06:59:26.951Z,22.23
2022-12-10T07:03:28.415Z,21.42
2022-12-10T07:07:29.939Z,26.52
2022-12-10T07:11:31.924Z,23.45
2022-12-10T07:15:33.414Z,19.67
2022-12-10T07:19:34.897Z,22.50
2022-12-10T07:23:36.327Z,20.67
2022-12-10T07:27:38.315Z,25.80
2022-12-10T07:31:39.914Z,23.60
2022-12-10T07:35:46.003Z,20.02
2022-12-10T07:39:48.861Z,20.17
2022-12-10T07:43:50.927Z,21.63
2022-12-10T07:47:52.366Z,23.63
2022-12-10T07:51:53.802Z,18.55
2022-12-10T07:55:55.612Z,22.50
2022-12-10T07:59:57.032Z,20.10
2022-12-10T08:03:58.553Z,18.13
2022-12-10T08:08:04.083Z,18.67
2022-12-10T08:12:08.202Z,15.77
2022-12-10T08:16:14.202Z,18.55
2022-12-10T08:20:15.702Z,17.83
2022-12-10T08:24:17.125Z,16.27
2022-12-10T08:28:18.567Z,16.33
2022-12-10T08:32:19.996Z,16.73
2022-12-10T08:36:21.508Z,18.13
2022-12-10T08:40:22.967Z,16.48
2022-12-10T08:44:24.378Z,14.80
2022-12-10T08:48:25.837Z,15.60
2022-12-10T08:52:30.112Z,19.10
2022-12-10T08:56:31.890Z,18.98
2022-12-10T09:00:33.388Z,18.23
2022-12-10T09:04:34.812Z,18.00
2022-12-10T09:08:36.766Z,14.80
2022-12-10T09:12:38.358Z,16.25
2022-12-10T09:16:40.251Z,14.32
2022-12-10T09:20:41.720Z,18.15
2022-12-10T09:24:43.197Z,17.17
2022-12-10T09:28:46.181Z,15.45
2022-12-10T09:32:47.591Z,18.10
2022-12-10T09:36:49.059Z,17.00
2022-12-10T09:41:49.114Z,17.02
2022-12-10T09:46:24.903Z,19.75
2022-12-10T09:50:28.972Z,17.90
2022-12-10T09:54:59.688Z,15.93
2022-12-10T09:59:11.752Z,18.63
2022-12-10T10:03:15.401Z,17.25
2022-12-10T10:07:29.899Z,16.48
2022-12-10T10:11:34.161Z,18.08
2022-12-10T10:15:38.638Z,15.93
2022-12-10T10:19:42.117Z,15.27
2022-12-10T10:23:45.904Z,17.40
2022-12-10T10:27:47.703Z,16.25
2022-12-10T10:32:14.042Z,18.83
2022-12-10T10:36:15.556Z,20.75
2022-12-10T10:40:37.198Z,18.73
2022-12-10T10:44:39.756Z,17.20
2022-12-10T10:48:41.256Z,22.90
2022-12-10T10:52:43.009Z,13.82
2022-12-10T10:56:44.768Z,18.05
2022-12-10T11:01:07.007Z,20.15
2022-12-10T11:05:09.713Z,19.08
2022-12-10T11:09:27.731Z,16.02
2022-12-10T11:13:31.721Z,21.17
2022-12-10T11:17:33.137Z,18.50
2022-12-10T11:21:35.598Z,17.08
2022-12-10T11:25:57.449Z,20.48
2022-12-10T11:30:05.658Z,14.95
2022-12-10T11:34:30.732Z,16.70
2022-12-10T11:38:48.224Z,20.55
2022-12-10T11:43:07.215Z,21.58
2022-12-10T11:47:30.633Z,18.25
2022-12-10T11:52:01.403Z,21.38
2022-12-10T12:00:28.541Z,21.13
2022-12-10T12:04:44.841Z,21.73
2022-12-10T12:09:13.760Z,21.52
2022-12-10T12:13:42.521Z,18.92
2022-12-10T12:17:56.689Z,20.10
2022-12-10T12:22:06.887Z,26.45
2022-12-10T12:26:14.305Z,19.10
2022-12-10T12:30:19.546Z,23.75
2022-12-10T12:34:50.405Z,19.90
2022-12-10T12:43:13.245Z,25.53
2022-12-10T12:47:32.193Z,16.75
2022-12-10T12:51:42.927Z,20.70
2022-12-10T12:56:03.155Z,20.35
2022-12-10T13:00:19.172Z,20.45
2022-12-10T13:04:21.068Z,22.08
2022-12-10T13:08:22.520Z,21.23
2022-12-10T13:12:30.793Z,23.27
2022-12-10T13:16:47.514Z,19.00
2022-12-10T13:21:29.638Z,23.85
2022-12-10T13:25:55.669Z,19.95
2022-12-10T13:30:01.428Z,24.77
2022-12-10T13:34:02.791Z,18.33
2022-12-10T13:38:20.937Z,22.67
2022-12-10T13:42:48.619Z,20.10
2022-12-10T13:46:57.590Z,23.48
2022-12-10T13:51:23.520Z,23.07
2022-12-10T13:55:47.256Z,18.23
2022-12-10T14:00:16.381Z,20.38
2022-12-10T14:04:43.384Z,24.88
2022-12-10T14:08:55.492Z,18.80
2022-12-10T14:12:57.438Z,20.50
2022-12-10T14:17:06.714Z,18.20
2022-12-10T14:21:08.665Z,19.90
2022-12-10T14:25:14.765Z,35.60
2022-12-10T14:29:28.774Z,19.85
2022-12-10T14:33:32.044Z,20.58
2022-12-10T14:37:37.092Z,18.50
2022-12-10T14:41:41.021Z,19.90
2022-12-10T14:45:51.761Z,23.77
2022-12-10T14:49:56.174Z,19.50
2022-12-10T14:53:57.671Z,19.08
2022-12-10T14:58:02.473Z,22.77
2022-12-10T15:02:15.275Z,23.90
2022-12-10T15:06:19.714Z,24.75
2022-12-10T15:10:33.441Z,25.63
2022-12-10T15:14:37.302Z,22.92
2022-12-10T15:18:39.268Z,24.13
2022-12-10T15:22:40.796Z,27.23
2022-12-10T15:26:46.694Z,24.92
2022-12-10T15:30:51.996Z,25.33
2022-12-10T15:34:59.972Z,30.10
2022-12-10T15:39:13.653Z,21.65
2022-12-10T15:43:21.231Z,24.02
2022-12-10T15:47:27.489Z,26.63
2022-12-10T15:51:28.944Z,27.42
2022-12-10T15:55:30.404Z,23.02
2022-12-10T15:59:31.850Z,30.33
2022-12-10T16:03:33.737Z,25.52
2022-12-10T16:07:35.180Z,22.33
2022-12-10T16:11:36.872Z,30.95
2022-12-10T16:16:02.071Z,22.25
2022-12-10T16:20:33.320Z,26.85
2022-12-10T16:24:34.805Z,29.55
2022-12-10T16:28:36.264Z,29.92
2022-12-10T16:32:37.716Z,35.17
2022-12-10T16:36:39.401Z,28.48
2022-12-10T16:40:43.010Z,29.20
2022-12-10T16:44:44.463Z,28.48
2022-12-10T16:48:45.949Z,31.67
2022-12-10T16:52:47.565Z,34.08
2022-12-10T16:56:49.073Z,32.80
2022-12-10T17:00:53.828Z,30.20
2022-12-10T17:04:55.637Z,36.85
2022-12-10T17:08:57.061Z,37.25
2022-12-10T17:12:58.690Z,33.03
2022-12-10T17:17:03.729Z,30.30
2022-12-10T17:21:05.413Z,29.38
2022-12-10T17:25:07.289Z,35.25
2022-12-10T17:29:30.985Z,32.38
2022-12-10T17:33:32.770Z,39.55
2022-12-10T17:37:34.592Z,33.63
2022-12-10T17:41:40.204Z,34.53
2022-12-10T17:45:43.026Z,33.28
2022-12-10T17:49:45.084Z,31.52
2022-12-10T17:53:46.974Z,26.30
2022-12-10T17:57:49.403Z,30.85
2022-12-10T18:01:51.849Z,33.88
2022-12-10T18:05:53.979Z,38.83
2022-12-10T18:09:55.685Z,34.30
2022-12-10T18:13:57.874Z,30.60
2022-12-10T18:18:00.933Z,43.08
2022-12-10T18:22:02.411Z,30.65
2022-12-10T18:26:12.088Z,36.67
2022-12-10T18:30:20.277Z,42.85
2022-12-10T18:34:21.703Z,42.08
2022-12-10T18:38:23.104Z,37.15
2022-12-10T18:42:24.619Z,38.92
2022-12-10T18:46:28.319Z,43.45
2022-12-10T18:50:30.423Z,43.22
2022-12-10T18:54:32.457Z,35.30
2022-12-10T18:58:34.188Z,41.90
2022-12-10T19:02:35.930Z,38.90
2022-12-10T19:06:38.500Z,40.17
2022-12-10T19:10:40.052Z,44.20
2022-12-10T19:14:41.656Z,47.38
2022-12-10T19:18:45.369Z,37.22
2022-12-10T19:22:46.984Z,40.08
2022-12-10T19:26:48.746Z,38.80
2022-12-10T19:30:54.505Z,34.40
2022-12-10T19:34:56.403Z,37.45
2022-12-10T19:38:58.116Z,35.75
2022-12-10T19:43:00.355Z,31.77
2022-12-10T19:47:02.273Z,29.92
2022-12-10T19:51:03.783Z,39.10
2022-12-10T19:55:07.963Z,39.40
2022-12-10T19:59:19.718Z,28.35
2022-12-10T20:03:21.514Z,26.48
2022-12-10T20:07:23.259Z,36.80
2022-12-10T20:11:25.222Z,26.70
2022-12-10T20:15:26.673Z,25.30
2022-12-10T20:19:28.203Z,35.85
2022-12-10T20:23:29.690Z,27.45
2022-12-10T20:27:31.464Z,28.92
2022-12-10T20:31:33.505Z,31.42
2022-12-10T20:35:40.989Z,34.40
2022-12-10T20:39:49.538Z,37.70
2022-12-10T20:43:58.552Z,27.23
2022-12-10T20:48:00.846Z,32.05
2022-12-10T20:52:02.716Z,33.95
2022-12-10T20:56:05.008Z,25.08
2022-12-10T21:00:15.975Z,29.27
2022-12-10T21:04:17.912Z,26.33
2022-12-10T21:08:23.292Z,28.15
2022-12-10T21:12:25.052Z,28.10
2022-12-10T21:16:26.691Z,29.80
2022-12-10T21:20:29.346Z,31.95
2022-12-10T21:24:31.248Z,25.40
2022-12-10T21:28:32.804Z,22.63
2022-12-10T21:32:34.488Z,25.60
2022-12-10T21:36:36.385Z,24.38
2022-12-10T21:40:40.951Z,18.75
2022-12-10T21:44:42.456Z,21.90
2022-12-10T21:48:43.961Z,26.38
2022-12-10T21:52:45.421Z,24.38
2022-12-10T21:56:46.998Z,23.80
2022-12-10T22:00:58.397Z,22.40
2022-12-10T22:05:00.874Z,25.90
2022-12-10T22:09:02.329Z,19.92
2022-12-10T22:13:04.021Z,22.15
2022-12-10T22:17:05.547Z,19.45
2022-12-10T22:21:07.081Z,18.20
2022-12-10T22:25:09.018Z,17.95
2022-12-10T22:29:14.126Z,20.13
2022-12-10T22:33:15.646Z,21.17
2022-12-10T22:37:17.206Z,17.83
2022-12-10T22:41:18.643Z,19.77
2022-12-10T22:45:25.479Z,20.02
2022-12-10T22:49:26.946Z,9.98
2022-12-10T22:53:37.522Z,13.77
2022-12-10T22:57:38.978Z,18.77
2022-12-10T23:01:40.579Z,15.05
2022-12-10T23:05:42.034Z,17.02
2022-12-10T23:09:44.279Z,16.75
2022-12-10T23:13:46.025Z,18.70
2022-12-10T23:17:47.483Z,20.17
2022-12-10T23:21:48.941Z,22.88
2022-12-10T23:25:51.422Z,14.68
2022-12-10T23:29:53.022Z,18.88
2022-12-10T23:33:54.465Z,16.80
2022-12-10T23:37:55.937Z,16.80
2022-12-10T23:41:57.577Z,18.85
2022-12-10T23:45:59.703Z,18.88
2022-12-10T23:50:01.189Z,14.73
2022-12-10T23:54:03.254Z,20.27
2022-12-10T23:58:04.645Z,14.40
